LiveATC.Net - Listen to live air traffic control over the Internet!

Airport/ARTCC Code
Frequency Search
(e.g., 124.400, 128.75)
Site-wide search
 


Browse Feeds
Top 50 Feeds
HF Oceanic Feeds
Coverage Map
Bad Weather Areas

LiveATC FAQ
Offer LiveATC feed
Contact LiveATC.net
Press Inquiries

LiveATC on iPhone
LiveATC on Android

LiveATC Mobile
(Mobile browser)

ATC Audio Archives
Interesting Recordings

LiveATC Forums

Home Page
About LiveATC.net


Terms of Use
Privacy Policy

AIRMETs/SIGMETs

FAA Airport Status
NAS Status
Arrival Demand


Server Software By:
Icecast.org
Liquidsoap


Current Potentially Bad Weather Airports
(updated every 30 minutes - sorted alphabetically by ICAO code)



This page lists LiveATC.net airport areas that may be interesting to listen to because of challenging flying (weather) conditions. Challenging weather conditions include low ceilings, limited visibility, high or gusty winds, or thunderstorms.

Updated: Fri May 20 06:40:01 UTC 2022
Click on airport name to go to that airport area's feeds.

BGGH AFIS Nuuk Airport (Nuuk, Greenland)
WX MAP UNAVAILABLENearest METAR:
BGGH 200550Z AUTO /////KT 0150NDV -SN VV001/// M02/M02 Q1006
CYAM ATIS Sault Ste. Marie Airport (Sault Ste. Marie, CA-ON)
WX MAP UNAVAILABLENearest METAR:
CYAM 200612Z 08010KT 2 1/4SM BR BKN005 OVC100 11/11 A2948 RMK FG1CF6AC1 CIG VRB 3-7 PRESFR SLP987 DENSITY ALT 800FT
CYFB CTAF/RDO Iqaluit Airport (Iqaluit, CA-NU)
WX MAP UNAVAILABLENearest METAR:
CYFB 200600Z 14002KT 3SM -SN OVC025 M03/M03 A2980 RMK SC8 SLP096
CYHU Tower Saint-Hubert Airport (Montreal, CA-QC)
cyhuNearest METAR:
CYHU 200626Z AUTO 00000KT 2 1/2SM BR SCT020 OVC050 10/10 A2981 RMK SLP096
CYOW Gnd/Twr/App Ottawa MacDonald Cartier International Airport (Ottawa, CA-ON)
cyowNearest METAR:
CYOW 200600Z 16006KT 3/8SM R07/2000V2600FT/N R32/1800V2200FT/N FG VV002 08/08 A2977 RMK FG8 SLP086
CYQT Ground/Tower Thunder Bay Airport (Thunder Bay, CA-ON)
cyqtNearest METAR:
CYQT 200600Z 09009KT 10SM OVC004 05/04 A2938 RMK ST8 CIG RAG PRESFR SLP955
CYWG Del/Gnd/Twr Winnipeg James Armstrong Richardson International Airport (Winnipeg, CA-MB)
WX MAP UNAVAILABLENearest METAR:
CYWG 200600Z 04016KT 5SM -RA BR OVC005 08/08 A2925 RMK SF8 /R022/ SLP911 DENSITY ALT 1000FT
ENAL Twr/App Alesund Airport, Vigra (Alesund, Norway)
WX MAP UNAVAILABLENearest METAR:
ENAL 200620Z 31004KT 5000 BR VV003 09/08 Q1016
ESMS Tower Malmo Airport (Svedala, Sweden)
WX MAP UNAVAILABLENearest METAR:
ESMS 200620Z 29010KT 6000 BR BKN007 OVC009 15/13 Q1016
FMEP Info Pierrefonds Airport (Saint-Pierre, Reunion)
WX MAP UNAVAILABLENearest METAR:
FMEP 200600Z AUTO 11013KT 080V140 9999 FEW023 27/18 Q1019 BECMG 12020G30KT
KABQ Twr/App/ZAB Albuquerque International Sunport Airport (Albuquerque, US-NM)
kabqNearest METAR:
KABQ 200552Z 26021G33KT 10SM FEW250 24/M05 A2972 RMK AO2 PK WND 27033/0546 SLP966 T02441050 10317 20244 53005
KAFW Tower/Heli/App Fort Worth Alliance Airport (Fort Worth, US-TX)
kafwNearest METAR:
KAFW 200553Z 17021G30KT 10SM SCT250 27/18 A2952 RMK AO2 PK WND 17032/0458 SLP979 T02720183 10333 20272 403560222 51003
KAPF Ft Myers App/Dep Naples Municipal Airport (Naples, US-FL)
kapfNearest METAR:
KAPF 200623Z AUTO 14003KT 10SM VCTS BKN018 BKN036 BKN120 26/26 A2995 RMK AO2 LTG DSNT W-N RAB0556E08 P0000 T02560256
KASH Ground/FBO Boire Field Airport (Nashua, US-NH)
kashNearest METAR:
KASH 200556Z AUTO 31003KT 10SM OVC007 12/ A2984 RMK AO2 CIG 006V009 SLP109 T0122 10133 20122 53012
KMHT Boston App/Dep #3 Manchester Airport (Manchester, US-NH)
kmhtNearest METAR:
KMHT 200603Z 29004KT 10SM OVC006 12/11 A2983 RMK AO2 CIG 004V007 T01220111
KATW Tower Appleton International Airport (Appleton, US-WI)
katwNearest METAR:
KATW 200615Z AUTO 16018G23KT 7SM -RA OVC110 16/15 A2933 RMK AO2 LTG DSNT E SW AND W P0001
KAUG CTAF/FSS Augusta State Airport (Augusta, US-ME)
kaugNearest METAR:
KAUG 200553Z AUTO 10005KT 4SM BR OVC002 09/08 A2981 RMK AO2 SLP097 T00940083 10100 20089 50005
KBDL Approach/ANG Bradley International Airport (Windsor Locks, US-CT)
kbdlNearest METAR:
KBDL 200610Z 00000KT 1/4SM R06/1600V2000FT FG VV002 11/11 A2987 RMK AO2 T01110111
KBDR Del/Gnd/Twr/App Igor I Sikorsky Memorial Airport (Bridgeport, US-CT)
kbdrNearest METAR:
KBDR 200552Z AUTO 00000KT 9SM OVC004 12/12 A2987 RMK AO2 SLP115 T01220117 10128 20111 53008
KBMG Twr/App Monroe County Airport (Bloomington, US-IN)
kbmgNearest METAR:
KBMG 200625Z AUTO 13005KT 2 1/2SM TSRA BR FEW006 BKN049 OVC100 19/17 A2957 RMK AO2 LTG DSNT ALQDS TSE0555B0557 P0010 T01890172
KBMI Gnd/Twr/App/Dep Central Illinois Regional Airport at Bloomington-Normal (Bloomington/Normal, US-IL)
kbmiNearest METAR:
KBMI 200556Z 20011KT 10SM OVC008 18/17 A2949 RMK AO2 SLP978 T01780167 10244 20172 402940128 55009
MA/NH/RI/CT Area CTAF Hopedale Industrial Park Airport (Hopedale, US-MA)
kconNearest METAR:
KCON 200551Z AUTO 32003KT 10SM OVC007 11/11 A2983 RMK AO2 SLP104 60004 T01110106 10117 20111 53014
MA/NH/RI/CT Area CTAF Hopedale Industrial Park Airport (Hopedale, US-MA)
keenNearest METAR:
KEEN 200556Z AUTO 00000KT M1/4SM FG OVC001 11/11 A2984 RMK AO2 SLP109 60000 T01060106 10133 20106 51015 $
KBVY Tower #1 Beverly Municipal Airport (Beverly, US-MA)
kbvyNearest METAR:
KBVY 200626Z AUTO 35004KT 1/2SM FG BKN003 OVC009 09/09 A2983 RMK AO2 T00940089 TSNO
KCCB CTAF Cable Airport (Upland, US-CA)
kccbNearest METAR:
KCCB 200605Z AUTO 26007KT 8SM OVC007 15/14 A2983 RMK AO2
KCFJ CTAF Crawfordsville Regional Airport (Crawfordsville, US-IN)
kcfjNearest METAR:
KCFJ 200615Z AUTO 15012KT 10SM OVC032 19/12 A2954 RMK AO2 LTG DSNT E AND SE T01850120
KCMH App/Dep (134.0) Port Columbus International Airport (Columbus, US-OH)
klckNearest METAR:
KLCK 200555Z AUTO 18013G20KT 10SM CLR 20/16 A2965 RMK AO2 LTG DSNT SE AND S T02000160 10241 20181 402550160
KCOS Gnd/Twr/App/Dep City of Colorado Springs Municipal Airport (Colorado Springs, US-CO)
kcosNearest METAR:
KCOS 200554Z 01022G31KT 10SM FEW150 09/01 A2959 RMK AO2 PK WND 01031/0550 SLP940 T00890006 10306 20089 51020
KCRW Tower/Approach Yeager Airport (Charleston, US-WV)
kcrwNearest METAR:
KCRW 200627Z 35007G14KT 10SM VCTS FEW035 SCT045 BKN055 21/16 A2980 RMK AO2 LTG DSNT NE TSE25 OCNL LTG DSNT NE CB DSNT NE T02110156
KCYS Gnd/Twr/App/Center Cheyenne Regional Airport/Jerry Olson Field (Cheyenne, US-WY)
kcysNearest METAR:
KCYS 200553Z AUTO 02007KT 10SM OVC006 01/M01 A2969 RMK AO2 SLP998 T00111006 10056 20006 53029 $
KDFW Reg App Feeder (East) Dallas/Fort Worth International Airport (Dallas, US-TX)
kdfwNearest METAR:
KDFW 200553Z 18024G38KT 10SM BKN250 27/18 A2955 RMK AO2 PK WND 19038/0552 SLP997 T02670183 10333 20267 403560228 51006
Regional App (Meacham South) Fort Worth Meacham International Airport (Fort Worth, US-TX)
kftwNearest METAR:
KFTW 200553Z 16026G37KT 10SM CLR 27/18 A2955 RMK AO2 PK WND 17037/0552 SLP997 T02670183 10328 20267 403500217 50005
KDLH Gnd/Twr/App Duluth International Airport (Duluth, US-MN)
kdlhNearest METAR:
KDLH 200557Z 29003KT 6SM -RA BR OVC006 08/07 A2930 RMK AO2 TSE57 P0000 T00780067
KDXR Ground/Tower Danbury Municipal Airport (Danbury, US-CT)
kdxrNearest METAR:
KDXR 200553Z AUTO 00000KT 1/4SM FG VV002 12/11 A2988 RMK AO2 SLP115 T01220111 10156 20111 50010
KEAU Tower Chippewa Valley Regional Airport (Eau Claire, US-WI)
keauNearest METAR:
KEAU 200626Z AUTO 28004KT 10SM BKN100 16/15 A2923 RMK AO2 LTG DSNT E RAB00E09 P0000 T01610150
KELP Gnd/Twr/App/Dep El Paso International Airport (El Paso, US-TX)
WX MAP UNAVAILABLENearest METAR:
KELP 200551Z 26023G33KT 10SM CLR 27/M06 A2975 RMK AO2 PK WND 27035/0507 SLP990 T02721061 10339 20272 52005 $
KEST CTAF Estherville Municipal Airport (Estherville, US-IA)
kestNearest METAR:
KEST 200552Z AUTO 34025G33KT 10SM -RA BKN037 OVC080 13/09 A2938 RMK AO2 PK WND 32041/0456 LTG DSNT ALQDS RAB07 TSB31E46 SLP941 P0005 60005 T01280094 10317 20128 403280122 53056
KLGA NY App (EMPYR) Newark Liberty International Airport (Newark, US-NJ)
klgaNearest METAR:
KLGA 200628Z 18004KT 9SM OVC006 13/11 A2986 RMK AO2 T01330111
KFDK Del/Gnd/Twr/CTAF #1 Frederick Municipal Airport (Frederick, US-MD)
kfdkNearest METAR:
KFDK 200625Z AUTO 00000KT 2 1/2SM CLR 14/14 A2981 RMK AO2
KFKA CTAF Fillmore County Airport (Preston, US-MN)
kfkaNearest METAR:
KFKA 200615Z AUTO 18008KT 10SM VCTS SCT046 SCT070 20/16 A2927 RMK AO2 LTG DSNT E THRU SW T02000158
KFMY Del/Gnd/Twr Page Field Airport (Fort Myers, US-FL)
kfmyNearest METAR:
KFMY 200603Z AUTO 00000KT 3SM RA BR SCT023 BKN041 BKN110 25/23 A2996 RMK AO2 LTG DSNT S P0016 T02500228 $
KFSD Twr/App/Dep/ZMP Joe Foss Field Airport (Sioux Falls, US-SD)
kfsdNearest METAR:
KFSD 200556Z AUTO 33008KT 10SM OVC100 11/06 A2945 RMK AO2 LTG DSNT SE SLP968 60000 T01110061 10261 20106 403170100 50022
KFWA App/Dep Fort Wayne International Airport (Fort Wayne, US-IN)
kfwaNearest METAR:
KFWA 200554Z 19016G30KT 10SM FEW039 FEW060 SCT075 OVC180 21/16 A2957 RMK AO2 PK WND 20030/0545 SLP008 OCNL LTGIC DSNT S-SW CB DSNT S-SW MOV NE T02110161 10250 20206 55016
KGFL CTAF/App Floyd Bennett Memorial Airport (Glens Falls, US-NY)
kgflNearest METAR:
KGFL 200628Z AUTO 00000KT 1 1/2SM BR SCT004 08/07 A2984 RMK AO2 T00780072
KGKY Ground/Tower Arlington Municipal Airport (Arlington, US-TX)
kgkyNearest METAR:
KGKY 200553Z AUTO 16021G35KT 10SM CLR 26/19 A2957 RMK AO2 PK WND 15035/0550 SLP004 T02560189 10333 20256 403500222 51005
KGYI Ground/Tower North Texas Regional Airport/Perrin Field (Sherman/Denison, US-TX)
kgyiNearest METAR:
KGYI 200615Z AUTO 18021G30KT 10SM CLR 26/18 A2956 RMK AO2 T02600183 TSNO
KHFD Ground/Tower Hartford-Brainard Airport (Hartford, US-CT)
khfdNearest METAR:
KHFD 200609Z AUTO 21003KT 1/4SM FG VV002 12/12 A2987 RMK AO2 T01220117
NY Approach (NOBBI/NYACK/HAARP) Westchester County Airport (New York, US-NY)
khpnNearest METAR:
KHPN 200621Z 00000KT M1/4SM R16/1000V2200FT FG VV001 11/11 A2987 RMK AO2 T01110106 $
KHTO CTAF/Tower East Hampton Airport (East Hampton, US-NY)
khtoNearest METAR:
KHTO 200615Z AUTO 00000KT 1/4SM FG OVC002 10/10 A2987 RMK AO2 T01000100
KHUF Gnd/Twr/App Terre Haute International Airport-Hulman Field (Terre Haute, US-IN)
khufNearest METAR:
KHUF 200553Z 16008KT 10SM FEW028 BKN050 OVC065 19/18 A2954 RMK AO2 LTG DSNT E AND SE SLP999 60007 T01940183 10211 20194 58012
KHVN Ground/Tower Tweed-New Haven Airport (New Haven, US-CT)
khvnNearest METAR:
KHVN 200625Z AUTO 00000KT 1/4SM R02/2000V3000FT FG VV003 12/12 A2987 RMK AO2 T01220117
KHWO ATIS North Perry Airport (Hollywood, US-FL)
khwoNearest METAR:
KHWO 200553Z 15007KT 10SM FEW020 27/23 A2999 RMK AO2 LTG DSNT S SLP156 T02720233 10283 20272 58002
KHYS CTAF Hays Regional Airport (Hays, US-KS)
khysNearest METAR:
KHYS 200556Z AUTO 35027G36KT 9SM SCT042 16/08 A2932 RMK AO2 PK WND 35036/0547 WSHFT 0531 SLP908 T01610083 10306 20161 403280144 53015 $
KIMS AWOS Madison Municipal Airport (Madison, US-IN)
kimsNearest METAR:
KIMS 200615Z AUTO 00000KT 2 1/2SM RA SCT023 BKN075 OVC100 20/20 A2964 RMK AO2 VIS 1 1/2V5 P0002
KIND App/Dep Indianapolis International Airport (Indianapolis, US-IN)
kindNearest METAR:
KIND 200614Z 19010KT 10SM -TSRA SCT015 BKN048CB OVC060 19/18 A2956 RMK AO2 LTG DSNT ALQDS TSB12 FRQ LTGICCG SE-SW TS SE-SW MOV NE P0001 T01940178 $
KJNX CTAF Johnston Regional Airport (Smithfield, US-NC)
kjnxNearest METAR:
KJNX 200615Z AUTO 00000KT 10SM CLR 18/17 A2985 RMK AO2 LTG DSNT NE
KLCI Del/CTAF Laconia Municipal Airport (Laconia, US-NH)
klciNearest METAR:
KLCI 200556Z AUTO 00000KT 10SM OVC007 10/10 A2984 RMK AO2 SLP105 60003 T01000100 10100 20100 50011
KLNK Approach Lincoln Airport (Lincoln, US-NE)
klnkNearest METAR:
KLNK 200554Z 36021G30KT 10SM OVC048 16/06 A2946 RMK AO2 PK WND 36037/0524 SLP964 T01560056 10311 20156 403390156 51061
KLOU Tower Bowman Field Airport (Louisville, US-KY)
klouNearest METAR:
KLOU 200553Z AUTO 17008KT 10SM BKN055 23/19 A2962 RMK AO2 LTG DSNT N AND NW SLP023 60003 T02330194 10233 20217 56023
KLWM Ground/Tower Lawrence Municipal Airport (Lawrence, US-MA)
klwmNearest METAR:
KLWM 200619Z AUTO 00000KT 10SM OVC006 13/12 A2985 RMK AO2 CIG 004V009 T01330122
KCON/KDAW/KFIT CTAF Concord Municipal Airport (Concord, US-NH)
kdawNearest METAR:
KDAW 200551Z AUTO 00000KT 10SM OVC003 11/09 A2983 RMK AO2 SLP098 60002 T01060094 10111 20106 53015
KSFM CTAF Sanford Seacoast Regional Airport (Sanford, US-ME)
ksfmNearest METAR:
KSFM 200556Z AUTO 00000KT 10SM OVC004 10/09 A2985 RMK AO2 SLP112 60002 T01000094 10100 20094 53006
KMIA Departure (North) Miami International Airport (Miami, US-FL)
kmiaNearest METAR:
KMIA 200616Z 10013KT 7SM +TSRA SCT017CB BKN045 BKN100 OVC250 28/26 A2996 RMK AO2 LTG DSNT SE AND S RAB0554 TSB13 CONS LTGICCA DSNT SE OCNL LTGIC SE-SW TS SE-SW MOV N CB DSNT SE MOV N P0000 T02780256 $
KMTW CTAF Manitowoc County Airport (Manitowoc, US-WI)
kmtwNearest METAR:
KMTW 200556Z AUTO 02005KT 4SM VCTS -RA BR SCT075 OVC100 14/14 A2945 RMK AO2 PK WND 29028/0516 LTG DSNT SW-NW TSB09E44B53 SLP970 P0008 60009 T01390139 10144 20106 55014
NORCAL Departure (KSFO/KOAK) Metropolitan Oakland International Airport (Oakland, US-CA)
ksfoNearest METAR:
KSFO 200556Z 28024G30KT 9SM CLR 12/06 A2986 RMK AO2 PK WND 29030/0555 SLP111 T01220056 10194 20122 52003
KOMA Del/Gnd/Twr Eppley Airfield (Omaha, US-NE)
komaNearest METAR:
KOMA 200552Z 35020G30KT 10SM OVC048 16/08 A2942 RMK AO2 PK WND 34035/0506 SLP954 T01610078 10322 20161 403390161 51049
KOSH Tower Wittman Regional Airport (Oshkosh, US-WI)
koshNearest METAR:
KOSH 200553Z AUTO 19009KT 4SM -RA BR OVC100 17/16 A2942 RMK AO2 WSHFT 0514 LTG DSNT ALQDS TSE12B15E33 SLP954 P0015 60041 T01720161 10211 20161 402280106 50012
KOWD Ground/Tower Norwood Municipal Airport (Norwood, US-MA)
kowdNearest METAR:
KOWD 200627Z AUTO 00000KT 1/4SM FG VV001 08/07 A2983 RMK AO2 T00830067
KOXC Ground/Tower Waterbury-Oxford Airport (Oxford, US-CT)
koxcNearest METAR:
KOXC 200617Z AUTO 34003KT 1/2SM FG BKN004 08/08 A2987 RMK AO2
KPKB Gnd/Twr Mid-Ohio Valley Regional Airport (Parkersburg, US-WV)
kpkbNearest METAR:
KPKB 200623Z AUTO 20013G20KT 7SM -TSRA OVC110 19/17 A2979 RMK AO2 LTG DSNT SE-W TSB17 P0003 T01940167
KPOU Ground/Tower Dutchess County Airport (Poughkeepsie, US-NY)
kpouNearest METAR:
KPOU 200606Z AUTO 00000KT 1/4SM FG VV002 10/09 A2985 RMK AO2 T01000094
KPSM Gnd/Twr/App/GCA Portsmouth International Airport at Pease (Portsmouth, US-NH)
kpsmNearest METAR:
KPSM 200556Z 03003KT 1 1/2SM BR OVC002 11/11 A2983 RMK SLP104 60003 T01060106 10107 20100 50014
KPVU Tower Provo Municipal Airport (Provo, US-UT)
kpvuNearest METAR:
KPVU 200556Z AUTO 33029G40KT 10SM SCT080 SCT090 OVC110 09/M09 A2979 RMK AO2 PK WND 32040/0556 SLP048 T00941089 10200 20094 51022
KPWM Gnd/Twr/App Portland International Jetport (Portland, US-ME)
kpwmNearest METAR:
KPWM 200551Z AUTO 09003KT 8SM OVC003 09/09 A2984 RMK AO2 SLP104 60000 T00940089 10100 20094 51014
KRAL/KRIV Gnd/Twr/App March Air Reserve Base (Riverside, US-CA)
krivNearest METAR:
KRIV 200558Z 30005KT 10SM OVC009 15/12 A2984 RMK AO2A SLP096 T01480121 10249 20147 50008 $
KRBD Ground/Tower Dallas Executive Airport (Dallas, US-TX)
krbdNearest METAR:
KRBD 200553Z AUTO 18022G37KT 10SM CLR 26/18 A2958 RMK AO2 PK WND 18037/0552 SLP005 T02560183 10322 20256 403390217 50002
KRDU Departure 132.35 Raleigh-Durham International Airport (Raleigh/Durham, US-NC)
krduNearest METAR:
KRDU 200551Z 17003KT 10SM FEW070 FEW120 FEW170 BKN250 21/17 A2984 RMK AO2 RAE06 TSE06 SLP100 OCNL LTG DSNT E-SE P0000 60001 T02060172 10300 20200 50001
KRIL CTAF/ZDV Rifle Garfield County Airport (Rifle, US-CO)
krilNearest METAR:
KRIL 200553Z AUTO 32027G40KT 10SM BKN110 15/01 A2951 RMK AO2 PK WND 32040/0528 SLP921 T01500006 10278 20150 53009
KRSW Gnd/Twr/App/Dep Southwest Florida International Airport (Fort Myers, US-FL)
krswNearest METAR:
KRSW 200550Z AUTO 00000KT 3SM -RA BR FEW024 SCT033 BKN044 26/24 A2997 RMK AO2 LTG DSNT S RAB35 SLP146 P0009 60009 T02560239 10300 20250 58004
KSDF App/Dep #1 Louisville International Airport-Standiford Field (Louisville, US-KY)
ksdfNearest METAR:
KSDF 200556Z 17011KT 10SM SCT050 BKN120 BKN190 25/18 A2961 RMK AO2 LTG DSNT N SLP020 60002 T02500183 10250 20222 58022
KSGU CTAF/Del St George Regional Airport (St George, US-UT)
ksguNearest METAR:
KSGU 200556Z AUTO 22023G35KT 9SM CLR 29/M02 A2949 RMK AO2 PK WND 20038/0530 SLP940 T02891022 10356 20289 56004
KSPK CTAF Spanish Fork Municipal Airport/Woodhouse Field (Spanish Fork, US-UT)
kspkNearest METAR:
KSPK 200615Z AUTO 32025G32KT 10SM OVC075 09/M09 A2977 RMK AO2
KSWF Tower Stewart International Airport (Newburgh, US-NY)
kswfNearest METAR:
KSWF 200545Z 21006KT 1/2SM R09/0500FT FG OVC015 16/13 A2985
KTMB ATIS Kendall-Tamiami Executive Airport (Miami, US-FL)
ktmbNearest METAR:
KTMB 200618Z AUTO 23003KT 5SM VCTS RA BR FEW022 SCT044 BKN050 25/23 A2997 RMK AO2 LTG DSNT N-SE RAB02 P0004 T02500228
KTRI Gnd/Twr/App Tri-Cities Regional Airport (Bristol/Johnson/Kingsport, US-TN)
ktriNearest METAR:
KTRI 200553Z 00000KT 1/8SM FG VV001 18/18 A2987 RMK AO2 SLP087 60000 T01830178 10228 20183 55000
KTUL Del/Gnd/Twr/App Tulsa International Airport (Tulsa, US-OK)
WX MAP UNAVAILABLENearest METAR:
KTUL 200553Z 17023G34KT 10SM BKN250 27/19 A2940 RMK AO2 PK WND 17038/0529 SLP945 T02720189 10300 20272 403220211 58014 $
KVNY Tower #1 Van Nuys Airport (Van Nuys, US-CA)
kvnyNearest METAR:
KVNY 200609Z AUTO 17007KT 8SM OVC009 16/12 A2981 RMK AO2 T01610122
MSLP Gnd/Twr/App/Center Monsenor Oscar Arnulfo Romero International Airport (San Salvador, El Salvador)
WX MAP UNAVAILABLENearest METAR:
MSLP 200616Z 19004KT 150V230 8000 -TSRA FEW023 SCT037CB BKN070 23/23 Q1011 NOSIG
SBPL RDO/ACC Petrolina Airport (Petrolina, Brazil)
WX MAP UNAVAILABLENearest METAR:
SBPL 200600Z 00000KT 9999 -RA FEW020 BKN070 22/22 Q1014 RETSRA
SPJC Approach Jorge Chavez International Airport (Lima, Peru)
WX MAP UNAVAILABLENearest METAR:
SPJC 200600Z 16010KT 9999 OVC007 17/15 Q1014 NOSIG RMK PP000
URSS Gnd/Twr/App Sochi International Airport (Sochi, Russia)
WX MAP UNAVAILABLENearest METAR:
URSS 200600Z 03003MPS 9999 -SHRA FEW033 OVC058CB 11/08 Q1024 R02/010070 R06/010070 NOSIG RMK R06/08003MPS MT OBSC QFE766